createdAt,value
2018-08-23T00:00:43.792Z,24.00
2018-08-23T00:03:17.388Z,24.10
2018-08-23T00:05:52.735Z,24.10
2018-08-23T00:08:21.332Z,24.10
2018-08-23T00:10:52.067Z,24.00
2018-08-23T00:13:24.324Z,24.00
2018-08-23T00:15:52.494Z,24.10
2018-08-23T00:18:20.647Z,24.00
2018-08-23T00:23:16.729Z,24.00
2018-08-23T00:25:44.910Z,23.90
2018-08-23T00:28:13.067Z,23.90
2018-08-23T00:30:43.160Z,24.00
2018-08-23T00:33:11.305Z,24.00
2018-08-23T00:35:39.508Z,23.90
2018-08-23T00:38:08.128Z,23.90
2018-08-23T00:40:37.005Z,23.90
2018-08-23T00:43:07.887Z,23.80
2018-08-23T00:45:36.053Z,23.80
2018-08-23T00:48:04.236Z,23.80
2018-08-23T00:50:53.095Z,23.80
2018-08-23T00:56:00.377Z,23.80
2018-08-23T00:58:28.510Z,23.80
2018-08-23T01:01:04.909Z,23.80
2018-08-23T01:03:35.196Z,23.80
2018-08-23T01:06:03.658Z,23.90
2018-08-23T01:08:32.760Z,23.70
2018-08-23T01:11:05.848Z,23.80
2018-08-23T01:13:34.937Z,23.70
2018-08-23T01:16:03.224Z,23.60
2018-08-23T01:18:31.369Z,23.50
2018-08-23T01:21:07.640Z,23.40
2018-08-23T01:23:37.572Z,23.20
2018-08-23T01:26:06.437Z,23.10
2018-08-23T01:28:34.921Z,23.00
2018-08-23T01:31:20.027Z,23.00
2018-08-23T01:33:48.465Z,23.00
2018-08-23T01:36:20.964Z,23.00
2018-08-23T01:38:49.110Z,22.90
2018-08-23T01:41:17.228Z,22.90
2018-08-23T01:43:45.369Z,23.00
2018-08-23T01:46:13.489Z,23.00
2018-08-23T01:48:44.914Z,23.00
2018-08-23T01:51:13.068Z,23.00
2018-08-23T01:53:41.532Z,22.90
2018-08-23T01:56:09.644Z,23.00
2018-08-23T01:58:37.823Z,22.90
2018-08-23T02:01:13.876Z,22.90
2018-08-23T02:03:42.144Z,23.00
2018-08-23T02:06:10.280Z,22.90
2018-08-23T02:08:38.382Z,22.90
2018-08-23T02:11:06.589Z,22.90
2018-08-23T02:13:34.711Z,22.90
2018-08-23T02:16:03.504Z,22.80
2018-08-23T02:18:32.200Z,22.80
2018-08-23T02:21:05.661Z,22.80
2018-08-23T02:23:35.609Z,22.80
2018-08-23T02:26:03.714Z,22.90
2018-08-23T02:28:31.869Z,22.80
2018-08-23T02:30:59.976Z,22.80
2018-08-23T02:33:28.114Z,22.80
2018-08-23T02:36:22.221Z,22.90
2018-08-23T02:39:08.506Z,22.80
2018-08-23T02:41:36.636Z,22.80
2018-08-23T02:44:04.821Z,22.70
2018-08-23T02:46:33.220Z,22.80
2018-08-23T02:49:01.378Z,22.70
2018-08-23T02:51:41.300Z,22.70
2018-08-23T02:54:11.541Z,22.60
2018-08-23T02:56:39.663Z,22.50
2018-08-23T02:59:07.876Z,22.50
2018-08-23T03:01:40.649Z,22.40
2018-08-23T03:04:11.382Z,22.40
2018-08-23T03:06:57.624Z,22.40
2018-08-23T03:11:58.065Z,22.30
2018-08-23T03:14:27.063Z,22.30
2018-08-23T03:17:35.273Z,22.20
2018-08-23T03:20:06.797Z,22.20
2018-08-23T03:22:35.265Z,22.20
2018-08-23T03:25:05.305Z,22.10
2018-08-23T03:27:33.474Z,22.10
2018-08-23T03:30:02.570Z,22.10
2018-08-23T03:32:30.885Z,22.10
2018-08-23T03:34:59.445Z,22.10
2018-08-23T03:37:27.596Z,22.10
2018-08-23T03:39:55.996Z,22.20
2018-08-23T03:42:24.355Z,22.10
2018-08-23T03:44:53.495Z,22.10
2018-08-23T03:47:21.876Z,22.10
2018-08-23T03:49:50.217Z,22.10
2018-08-23T03:52:19.580Z,22.10
2018-08-23T03:54:54.246Z,22.10
2018-08-23T03:57:22.428Z,22.10
2018-08-23T03:59:51.550Z,22.10
2018-08-23T04:02:20.964Z,22.10
2018-08-23T04:04:52.804Z,22.00
2018-08-23T04:07:21.034Z,22.00
2018-08-23T04:09:49.174Z,22.00
2018-08-23T04:12:17.305Z,22.00
2018-08-23T04:14:45.456Z,21.90
2018-08-23T04:17:13.578Z,21.90
2018-08-23T08:06:23.216Z,29.40
2018-08-23T08:08:51.876Z,29.40
2018-08-23T08:11:20.072Z,29.40
2018-08-23T08:13:52.603Z,29.40
2018-08-23T08:16:20.729Z,29.30
2018-08-23T08:18:48.867Z,29.20
2018-08-23T08:21:17.332Z,29.10
2018-08-23T08:23:50.894Z,29.10
2018-08-23T08:26:19.074Z,29.20
2018-08-23T08:28:47.497Z,29.10
2018-08-23T08:31:15.658Z,29.10
2018-08-23T08:33:43.837Z,29.10
2018-08-23T08:36:12.256Z,29.10
2018-08-23T08:38:40.437Z,29.20
2018-08-23T08:41:08.581Z,29.20
2018-08-23T08:43:36.729Z,29.20
2018-08-23T08:46:04.872Z,29.30
2018-08-23T08:48:34.845Z,29.40
2018-08-23T08:51:16.545Z,29.50
2018-08-23T08:53:45.000Z,29.70
2018-08-23T08:56:13.144Z,29.70
2018-08-23T08:58:42.012Z,29.90
2018-08-23T09:01:10.182Z,30.00
2018-08-23T09:03:38.785Z,30.20
2018-08-23T09:06:09.248Z,30.30
2018-08-23T09:08:38.225Z,30.30
2018-08-23T09:11:06.694Z,30.40
2018-08-23T09:13:40.115Z,30.40
2018-08-23T09:16:10.339Z,30.50
2018-08-23T09:18:41.643Z,30.70
2018-08-23T09:21:09.808Z,30.90
2018-08-23T09:23:37.961Z,31.10
2018-08-23T09:26:06.114Z,31.10
2018-08-23T09:28:34.255Z,31.10
2018-08-23T09:31:03.064Z,31.00
2018-08-23T09:33:31.248Z,31.00
2018-08-23T09:35:59.396Z,31.00
2018-08-23T09:38:27.567Z,31.00
2018-08-23T09:40:55.832Z,31.10
2018-08-23T09:43:24.024Z,31.20
2018-08-23T09:45:53.757Z,31.10
2018-08-23T09:48:21.909Z,31.10
2018-08-23T09:50:50.085Z,30.90
2018-08-23T09:53:25.156Z,30.90
2018-08-23T09:55:54.643Z,30.90
2018-08-23T09:58:28.160Z,31.00
2018-08-23T10:01:01.477Z,31.20
2018-08-23T10:03:35.089Z,31.50
2018-08-23T10:06:08.621Z,31.70
2018-08-23T10:08:42.258Z,31.80
2018-08-23T10:11:18.950Z,31.80
2018-08-23T10:13:52.433Z,31.60
2018-08-23T10:16:25.993Z,31.40
2018-08-23T10:18:57.313Z,31.30
2018-08-23T10:21:30.805Z,31.10
2018-08-23T10:24:05.977Z,30.90
2018-08-23T10:26:34.200Z,30.70
2018-08-23T10:29:02.393Z,30.60
2018-08-23T10:31:30.557Z,30.50
2018-08-23T10:33:58.964Z,30.40
2018-08-23T10:36:27.097Z,30.40
2018-08-23T10:38:55.290Z,30.40
2018-08-23T10:41:23.459Z,30.40
2018-08-23T10:43:51.665Z,30.30
2018-08-23T10:46:19.817Z,30.20
2018-08-23T10:48:47.976Z,30.30
2018-08-23T10:51:17.528Z,30.20
2018-08-23T10:53:45.708Z,30.30
2018-08-23T10:56:13.847Z,30.40
2018-08-23T10:58:41.992Z,30.60
2018-08-23T11:01:10.177Z,30.80
2018-08-23T11:03:38.818Z,31.20
2018-08-23T11:06:06.936Z,31.50
2018-08-23T11:08:36.567Z,31.50
2018-08-23T11:11:10.002Z,31.40
2018-08-23T11:13:43.525Z,31.40
2018-08-23T11:16:16.857Z,31.40
2018-08-23T11:18:50.194Z,31.50
2018-08-23T11:21:18.660Z,31.60
2018-08-23T11:23:47.224Z,31.80
2018-08-23T11:26:20.306Z,32.00
2018-08-23T11:28:48.980Z,32.20
2018-08-23T11:31:22.438Z,32.30
2018-08-23T11:33:50.713Z,32.60
2018-08-23T11:36:18.858Z,32.80
2018-08-23T11:38:47.024Z,32.90
2018-08-23T11:41:15.254Z,33.10
2018-08-23T11:43:43.391Z,33.20
2018-08-23T11:46:12.447Z,33.50
2018-08-23T11:48:40.984Z,34.00
2018-08-23T11:51:09.117Z,34.60
2018-08-23T11:53:37.593Z,35.00
2018-08-23T11:58:33.467Z,35.30
2018-08-23T12:01:07.112Z,35.40
2018-08-23T12:03:35.295Z,35.40
2018-08-23T12:20:51.433Z,36.60
2018-08-23T12:25:47.572Z,36.50
2018-08-23T12:30:49.022Z,36.20
2018-08-23T12:33:17.170Z,36.40
2018-08-23T12:35:45.370Z,36.30
2018-08-23T12:38:20.861Z,35.70
2018-08-23T12:40:54.440Z,35.10
2018-08-23T12:43:27.938Z,35.10
2018-08-23T12:46:00.647Z,34.90
2018-08-23T12:48:28.896Z,34.90
2018-08-23T12:50:57.473Z,34.80
2018-08-23T12:53:27.423Z,34.80
2018-08-23T12:55:55.537Z,34.90
2018-08-23T12:58:23.986Z,34.80
2018-08-23T13:00:52.141Z,34.70
2018-08-23T13:03:20.284Z,34.70
2018-08-23T13:05:48.504Z,34.60
2018-08-23T13:08:16.682Z,34.70
2018-08-23T13:10:44.817Z,34.70
2018-08-23T13:13:12.988Z,34.70
2018-08-23T13:15:41.141Z,34.60
2018-08-23T13:18:09.284Z,34.60
2018-08-23T13:20:37.483Z,34.60
2018-08-23T13:23:05.728Z,34.50
2018-08-23T13:25:33.866Z,34.40
2018-08-23T13:28:02.082Z,34.40
2018-08-23T13:30:30.200Z,34.40
2018-08-23T13:32:58.461Z,34.40
2018-08-23T13:35:26.653Z,34.60
2018-08-23T13:37:54.769Z,34.80
2018-08-23T13:40:22.947Z,35.00
2018-08-23T13:42:51.364Z,35.10
2018-08-23T13:45:19.585Z,35.10
2018-08-23T13:47:47.665Z,35.00
2018-08-23T13:50:15.855Z,35.10
2018-08-23T13:52:44.059Z,35.10
2018-08-23T13:55:12.279Z,35.10
2018-08-23T13:57:40.416Z,35.00
2018-08-23T14:00:12.832Z,34.80
2018-08-23T14:02:41.068Z,34.70
2018-08-23T14:05:09.145Z,34.60
2018-08-23T14:07:37.961Z,34.50
2018-08-23T14:10:06.408Z,34.50
2018-08-23T14:12:34.522Z,34.50
2018-08-23T14:15:02.629Z,34.60
2018-08-23T14:17:30.994Z,34.60
2018-08-23T14:19:59.113Z,34.60
2018-08-23T14:22:27.270Z,34.50
2018-08-23T14:24:55.985Z,34.40
2018-08-23T14:27:24.113Z,34.40
2018-08-23T14:29:52.224Z,34.40
2018-08-23T14:32:20.358Z,34.30
2018-08-23T14:34:48.472Z,34.20
2018-08-23T14:37:16.591Z,34.20
2018-08-23T14:39:44.717Z,34.10
2018-08-23T14:42:13.130Z,34.10
2018-08-23T14:44:41.248Z,33.90
2018-08-23T14:47:14.705Z,33.80
2018-08-23T14:49:42.876Z,33.80
2018-08-23T14:52:11.000Z,33.60
2018-08-23T14:54:43.309Z,33.50
2018-08-23T14:57:16.869Z,33.40
2018-08-23T14:59:45.491Z,33.40
2018-08-23T15:02:13.770Z,33.50
2018-08-23T15:04:47.751Z,33.50
2018-08-23T15:07:16.329Z,33.60
2018-08-23T15:09:44.634Z,33.70
2018-08-23T15:12:12.732Z,33.70
2018-08-23T15:14:40.872Z,33.80
2018-08-23T15:17:09.653Z,33.90
2018-08-23T15:19:37.920Z,34.00
2018-08-23T15:22:06.414Z,34.00
2018-08-23T15:24:34.495Z,34.10
2018-08-23T15:27:02.805Z,34.10
2018-08-23T15:29:31.641Z,34.10
2018-08-23T15:31:59.753Z,34.10
2018-08-23T15:34:27.880Z,34.10
2018-08-23T15:36:55.978Z,34.00
2018-08-23T15:39:24.134Z,34.00
2018-08-23T15:41:52.216Z,34.00
2018-08-23T15:44:20.316Z,34.00
2018-08-23T15:46:49.132Z,34.00
2018-08-23T15:49:17.568Z,34.00
2018-08-23T15:51:45.890Z,34.00
2018-08-23T15:54:17.781Z,34.00
2018-08-23T15:56:45.905Z,34.10
2018-08-23T15:59:14.174Z,34.00
2018-08-23T16:01:42.284Z,33.90
2018-08-23T16:04:10.592Z,33.90
2018-08-23T16:06:38.713Z,33.80
2018-08-23T16:09:08.501Z,33.70
2018-08-23T16:11:36.779Z,33.50
2018-08-23T16:14:04.928Z,33.40
2018-08-23T16:16:38.460Z,33.40
2018-08-23T16:19:11.936Z,33.30
2018-08-23T16:21:40.468Z,33.30
2018-08-23T16:24:08.745Z,33.30
2018-08-23T16:26:42.282Z,33.20
2018-08-23T16:29:10.673Z,33.20
2018-08-23T16:31:38.820Z,33.20
2018-08-23T16:34:06.954Z,33.10
2018-08-23T16:36:35.104Z,33.10
2018-08-23T16:39:03.299Z,33.10
2018-08-23T16:41:31.434Z,33.00
2018-08-23T16:43:59.642Z,33.00
2018-08-23T16:46:27.785Z,33.00
2018-08-23T16:48:55.905Z,33.00
2018-08-23T16:51:24.401Z,32.90
2018-08-23T16:53:52.554Z,32.90
2018-08-23T16:56:20.772Z,32.90
2018-08-23T16:58:49.514Z,32.80
2018-08-23T17:01:17.914Z,32.80
2018-08-23T17:03:51.518Z,32.70
2018-08-23T17:06:19.661Z,32.60
2018-08-23T17:08:47.832Z,32.50
2018-08-23T17:11:16.041Z,32.50
2018-08-23T17:13:44.168Z,32.30
2018-08-23T17:18:21.703Z,32.30
2018-08-23T17:20:49.785Z,32.30
2018-08-23T17:23:18.040Z,32.20
2018-08-23T17:25:46.304Z,32.10
2018-08-23T17:28:14.575Z,32.10
2018-08-23T17:30:42.769Z,32.10
2018-08-23T17:33:10.982Z,32.00
2018-08-23T17:35:39.104Z,31.90
2018-08-23T17:38:07.233Z,31.90
2018-08-23T17:40:35.425Z,31.80
2018-08-23T17:43:03.821Z,31.70
2018-08-23T17:45:31.933Z,31.60
2018-08-23T17:48:00.061Z,31.60
2018-08-23T17:50:28.240Z,31.60
2018-08-23T17:55:24.330Z,31.50
2018-08-23T17:57:52.560Z,31.40
2018-08-23T18:00:20.688Z,31.30
2018-08-23T18:02:48.853Z,31.30
2018-08-23T18:05:16.979Z,31.30
2018-08-23T18:07:45.119Z,31.30
2018-08-23T18:10:13.295Z,31.20
2018-08-23T18:12:41.808Z,31.20
2018-08-23T18:15:10.236Z,31.10
2018-08-23T18:17:39.571Z,31.00
2018-08-23T18:20:07.805Z,30.80
2018-08-23T18:22:36.320Z,30.90
2018-08-23T18:25:04.538Z,30.60
2018-08-23T18:27:32.752Z,30.60
2018-08-23T18:30:00.932Z,30.50
2018-08-23T18:32:29.149Z,30.30
2018-08-23T18:34:57.314Z,30.40
2018-08-23T18:37:25.504Z,30.30
2018-08-23T18:39:53.571Z,30.20
2018-08-23T18:42:21.792Z,30.10
2018-08-23T18:44:49.983Z,30.10
2018-08-23T18:47:18.114Z,30.00
2018-08-23T18:49:46.332Z,30.00
2018-08-23T18:52:14.495Z,30.00
2018-08-23T18:54:42.694Z,30.10
2018-08-23T18:57:10.805Z,30.00
2018-08-23T18:59:38.936Z,29.70
2018-08-23T19:02:07.145Z,29.50
2018-08-23T19:04:35.271Z,29.20
2018-08-23T19:09:31.594Z,28.70
2018-08-23T19:11:59.742Z,28.30
2018-08-23T19:14:28.165Z,28.10
2018-08-23T19:17:01.573Z,28.10
2018-08-23T19:19:30.449Z,28.00
2018-08-23T19:21:58.598Z,27.90
2018-08-23T19:24:26.770Z,27.80
2018-08-23T19:26:54.904Z,27.70
2018-08-23T19:29:23.069Z,27.50
2018-08-23T19:31:51.224Z,27.20
2018-08-23T19:34:19.380Z,27.00
2018-08-23T19:36:47.581Z,26.90
2018-08-23T19:39:15.746Z,26.70
2018-08-23T19:41:43.888Z,26.50
2018-08-23T19:44:12.020Z,26.50
2018-08-23T19:46:45.632Z,26.50
2018-08-23T19:49:19.114Z,26.50
2018-08-23T19:51:47.690Z,26.50
2018-08-23T19:54:15.835Z,26.60
2018-08-23T19:56:44.037Z,26.60
2018-08-23T19:59:12.184Z,26.60
2018-08-23T20:01:40.373Z,26.70
2018-08-23T20:04:09.565Z,26.70
2018-08-23T20:06:37.855Z,26.70
2018-08-23T20:09:07.652Z,26.70
2018-08-23T20:11:35.861Z,26.60
2018-08-23T20:14:04.028Z,26.60
2018-08-23T20:16:52.932Z,26.30
2018-08-23T20:19:21.074Z,26.30
2018-08-23T20:21:49.438Z,26.00
2018-08-23T20:24:17.642Z,26.00
2018-08-23T20:26:45.843Z,25.80
2018-08-23T20:29:13.968Z,25.70
2018-08-23T20:31:43.152Z,25.70
